Time;durP1;ratioP1;P1;durP2;ratioP2;P2;SDS_P1;SDS_P2;PMS_P1;PMS_P2;Temp;Humidity;BMP_temperature;BMP_pressure;BME280_temperature;BME280_humidity;BME280_pressure;Samples;Min_cycle;Max_cycle;Signal;HPM_P1;HPM_P2
2021/08/03 00:01:03;;;;;;;1.40;1.10;;;17.80;99.90;;;;;;5015431;28;20439;-78
2021/08/03 00:03:53;;;;;;;2.63;1.20;;;17.80;99.90;;;;;;5032253;28;20213;-79
2021/08/03 00:06:20;;;;;;;2.33;1.40;;;17.80;99.90;;;;;;5015618;28;20420;-78
2021/08/03 00:08:55;;;;;;;1.70;1.07;;;17.80;99.90;;;;;;5014745;28;20464;-77
2021/08/03 00:11:21;;;;;;;1.57;0.90;;;17.70;99.90;;;;;;5032106;28;20825;-79
2021/08/03 00:13:47;;;;;;;1.60;0.90;;;17.80;99.90;;;;;;5031519;28;20861;-79
2021/08/03 00:16:13;;;;;;;2.57;1.23;;;17.80;99.90;;;;;;5017000;28;20420;-78
2021/08/03 00:18:40;;;;;;;1.47;1.20;;;17.80;99.90;;;;;;5017477;28;20201;-79
2021/08/03 00:21:08;;;;;;;1.90;1.10;;;17.80;99.90;;;;;;5017011;28;20976;-77
2021/08/03 00:23:36;;;;;;;2.10;1.23;;;17.80;99.90;;;;;;5032321;28;20855;-78
2021/08/03 00:26:02;;;;;;;1.77;1.10;;;17.70;99.90;;;;;;5015747;28;20478;-78
2021/08/03 00:28:31;;;;;;;2.40;1.57;;;17.70;99.90;;;;;;5015995;28;20840;-80
2021/08/03 00:30:57;;;;;;;2.70;1.40;;;17.70;99.90;;;;;;5016717;28;20496;-79
2021/08/03 00:33:23;;;;;;;1.57;1.10;;;17.70;99.90;;;;;;5032672;28;20508;-79
2021/08/03 00:35:49;;;;;;;1.40;1.30;;;17.60;99.90;;;;;;5016351;28;20460;-79
2021/08/03 00:38:15;;;;;;;1.83;1.40;;;17.50;99.90;;;;;;5017064;28;20202;-78
2021/08/03 00:40:58;;;;;;;2.67;1.40;;;17.40;99.90;;;;;;5032877;28;20442;-79
2021/08/03 00:43:24;;;;;;;5.33;1.30;;;17.40;99.90;;;;;;5017461;28;20475;-78
2021/08/03 00:45:49;;;;;;;2.10;1.20;;;17.40;99.90;;;;;;5017432;28;20932;-80
2021/08/03 00:48:15;;;;;;;2.50;1.37;;;17.50;99.90;;;;;;5015415;28;20189;-78
2021/08/03 00:50:42;;;;;;;1.40;1.00;;;17.50;99.90;;;;;;5015362;28;20174;-77
2021/08/03 00:53:08;;;;;;;1.80;1.30;;;17.40;99.90;;;;;;5017236;28;20208;-78
2021/08/03 00:55:36;;;;;;;1.20;1.10;;;17.40;99.90;;;;;;5016614;28;20408;-79
2021/08/03 00:58:02;;;;;;;2.10;1.30;;;17.30;99.90;;;;;;5017235;28;20202;-79
2021/08/03 01:00:28;;;;;;;1.93;1.07;;;17.30;99.90;;;;;;5016039;28;20411;-79
2021/08/03 01:02:53;;;;;;;2.93;1.40;;;17.30;99.90;;;;;;5015384;28;20440;-79
2021/08/03 01:05:19;;;;;;;3.50;1.53;;;17.30;99.90;;;;;;5015097;28;20246;-78
2021/08/03 01:08:08;;;;;;;3.53;1.40;;;17.30;99.90;;;;;;5015456;28;20178;-79
2021/08/03 01:10:53;;;;;;;2.07;1.50;;;17.30;99.90;;;;;;5012819;28;20491;-79
2021/08/03 01:13:44;;;;;;;1.93;1.00;;;17.20;99.90;;;;;;5017676;28;20456;-78
2021/08/03 01:16:55;;;;;;;3.07;1.30;;;17.20;99.90;;;;;;5019138;28;20401;-78
2021/08/03 01:19:46;;;;;;;3.57;1.27;;;17.20;99.90;;;;;;4996178;28;20882;-77
2021/08/03 01:22:24;;;;;;;1.30;1.20;;;17.30;99.90;;;;;;4996156;28;20979;-78
2021/08/03 01:25:33;;;;;;;3.10;1.03;;;17.30;99.90;;;;;;5013555;28;20420;-79
2021/08/03 01:28:11;;;;;;;1.93;1.30;;;17.40;99.90;;;;;;5017028;28;20462;-77
2021/08/03 01:30:42;;;;;;;4.33;1.53;;;17.30;99.90;;;;;;5033206;28;20982;-79
2021/08/03 01:33:08;;;;;;;1.40;1.07;;;17.20;99.90;;;;;;5033618;28;20438;-77
2021/08/03 01:35:35;;;;;;;5.67;1.00;;;17.20;99.90;;;;;;5033729;28;20443;-78
2021/08/03 01:38:03;;;;;;;1.33;1.13;;;17.10;99.90;;;;;;5017071;28;20468;-79
2021/08/03 01:40:29;;;;;;;1.50;1.30;;;17.10;99.90;;;;;;5019078;28;20417;-79
2021/08/03 01:42:56;;;;;;;1.27;0.90;;;17.20;99.90;;;;;;5033800;28;20936;-78
2021/08/03 01:45:22;;;;;;;1.50;1.30;;;17.10;99.90;;;;;;5034102;28;20425;-78
2021/08/03 01:47:48;;;;;;;2.00;1.40;;;17.10;99.90;;;;;;5019338;28;20420;-78
2021/08/03 01:50:16;;;;;;;1.67;1.17;;;17.20;99.90;;;;;;5019486;28;20791;-79
2021/08/03 01:52:42;;;;;;;1.63;0.90;;;17.10;99.90;;;;;;5017259;28;20229;-78
2021/08/03 01:55:09;;;;;;;2.00;1.40;;;17.00;99.90;;;;;;5019046;28;20409;-78
2021/08/03 01:57:43;;;;;;;3.00;1.20;;;17.00;99.90;;;;;;5017873;28;20456;-79
2021/08/03 02:00:09;;;;;;;1.63;1.00;;;17.10;99.90;;;;;;5032311;28;20760;-78
2021/08/03 02:02:35;;;;;;;2.60;0.90;;;17.00;99.90;;;;;;5015499;28;20967;-79
2021/08/03 02:05:01;;;;;;;1.77;1.10;;;17.00;99.90;;;;;;5031149;28;20823;-78
2021/08/03 02:07:27;;;;;;;1.53;1.10;;;16.90;99.90;;;;;;5023366;28;20410;-79
2021/08/03 02:09:55;;;;;;;2.87;1.60;;;16.90;99.90;;;;;;5028811;28;20194;-80
2021/08/03 02:12:21;;;;;;;2.13;1.27;;;16.90;99.90;;;;;;5036498;28;20519;-80
2021/08/03 02:14:47;;;;;;;1.93;1.20;;;16.90;99.90;;;;;;5021991;28;20796;-79
2021/08/03 02:17:23;;;;;;;2.37;1.27;;;17.00;99.90;;;;;;5037300;28;20871;-80
2021/08/03 02:19:49;;;;;;;1.40;1.13;;;17.10;99.90;;;;;;5020518;28;20409;-80
2021/08/03 02:22:17;;;;;;;2.43;1.40;;;17.10;99.90;;;;;;5021045;28;20492;-79
2021/08/03 02:24:43;;;;;;;1.60;1.27;;;17.10;99.90;;;;;;5035129;28;20792;-78
2021/08/03 02:27:09;;;;;;;2.17;1.10;;;17.10;99.90;;;;;;5017473;28;20915;-78
2021/08/03 02:29:37;;;;;;;1.50;1.03;;;17.10;99.90;;;;;;5018800;28;20429;-78
2021/08/03 02:32:23;;;;;;;2.17;1.50;;;17.10;99.90;;;;;;5017856;28;20499;-78
2021/08/03 02:34:57;;;;;;;1.50;1.30;;;17.10;99.90;;;;;;5014965;28;20429;-80
2021/08/03 02:37:36;;;;;;;2.20;1.37;;;17.10;99.90;;;;;;5019147;28;20452;-79
2021/08/03 02:40:04;;;;;;;1.87;1.40;;;17.10;99.90;;;;;;5032833;28;20421;-78
2021/08/03 02:42:31;;;;;;;2.10;1.20;;;17.10;99.90;;;;;;5017884;28;20440;-78
2021/08/03 02:45:01;;;;;;;1.83;1.17;;;17.00;99.90;;;;;;5017527;28;20603;-78
2021/08/03 02:50:15;;;;;;;3.40;1.50;;;17.00;99.90;;;;;;5016622;28;21007;-78
2021/08/03 02:52:43;;;;;;;1.90;1.60;;;17.00;99.90;;;;;;5025373;28;20428;-78
2021/08/03 02:55:21;;;;;;;1.50;1.20;;;16.90;99.90;;;;;;5017216;28;20511;-78
2021/08/03 02:57:51;;;;;;;3.63;1.40;;;16.80;99.90;;;;;;5018804;28;20543;-78
2021/08/03 03:00:18;;;;;;;2.50;1.50;;;16.70;99.90;;;;;;5019031;28;20486;-78
2021/08/03 03:02:44;;;;;;;2.37;1.70;;;16.70;99.90;;;;;;5017819;28;20444;-79
2021/08/03 03:05:24;;;;;;;1.50;1.00;;;16.70;99.90;;;;;;5017983;28;20409;-78
2021/08/03 03:07:53;;;;;;;3.93;2.07;;;16.60;99.90;;;;;;5032703;28;20474;-78
2021/08/03 03:10:25;;;;;;;2.07;1.70;;;16.60;99.90;;;;;;5016574;28;20912;-78
2021/08/03 03:12:55;;;;;;;1.73;1.33;;;16.50;99.90;;;;;;5015674;28;20524;-78
2021/08/03 03:15:22;;;;;;;2.10;1.40;;;16.30;99.90;;;;;;5018056;28;20496;-78
2021/08/03 03:17:48;;;;;;;2.90;1.70;;;16.50;99.90;;;;;;5018153;28;20495;-79
2021/08/03 03:20:17;;;;;;;2.43;1.23;;;16.60;99.90;;;;;;5015950;28;20497;-78
2021/08/03 03:22:45;;;;;;;5.97;1.57;;;16.60;99.90;;;;;;5016193;28;20970;-78
2021/08/03 03:25:15;;;;;;;3.00;1.50;;;16.60;99.90;;;;;;5017591;28;20443;-78
2021/08/03 03:27:42;;;;;;;2.33;1.50;;;16.70;99.90;;;;;;5032942;28;20429;-79
2021/08/03 03:30:09;;;;;;;1.93;1.47;;;16.70;99.90;;;;;;5031911;28;20940;-77
2021/08/03 03:32:35;;;;;;;3.43;1.80;;;16.70;99.90;;;;;;5013581;28;20440;-77
2021/08/03 03:35:02;;;;;;;2.90;2.10;;;16.80;99.90;;;;;;5015785;28;20460;-78
2021/08/03 03:37:32;;;;;;;3.30;1.90;;;16.80;99.90;;;;;;5016306;28;20452;-77
2021/08/03 03:39:58;;;;;;;7.03;1.80;;;16.90;99.90;;;;;;5033172;28;20428;-78
2021/08/03 03:42:32;;;;;;;2.43;1.63;;;16.80;99.90;;;;;;5032231;28;20812;-78
2021/08/03 03:44:59;;;;;;;1.70;1.40;;;16.80;99.90;;;;;;5033636;28;20866;-78
2021/08/03 03:47:34;;;;;;;2.47;2.20;;;16.70;99.90;;;;;;5033432;28;20435;-78
2021/08/03 03:50:15;;;;;;;2.13;1.40;;;16.70;99.90;;;;;;5032088;28;20794;-78
2021/08/03 03:52:46;;;;;;;3.53;1.90;;;16.80;99.90;;;;;;5015715;28;20498;-78
2021/08/03 03:55:19;;;;;;;2.77;1.87;;;16.80;99.90;;;;;;5017359;28;20416;-78
2021/08/03 03:57:45;;;;;;;4.63;1.83;;;16.80;99.90;;;;;;5033893;28;20456;-77
2021/08/03 04:00:15;;;;;;;2.83;1.63;;;16.80;99.90;;;;;;5034609;28;20417;-78
2021/08/03 04:02:42;;;;;;;2.70;1.73;;;16.90;99.90;;;;;;5034985;28;20452;-79
2021/08/03 04:05:15;;;;;;;2.03;1.60;;;16.80;99.90;;;;;;5019890;28;20417;-79
2021/08/03 04:07:49;;;;;;;1.73;1.30;;;16.80;99.90;;;;;;5019459;28;20428;-79
2021/08/03 04:10:17;;;;;;;2.10;1.60;;;16.90;99.90;;;;;;5018333;28;20479;-79
2021/08/03 04:12:43;;;;;;;4.10;1.63;;;16.90;99.90;;;;;;5032737;28;20432;-79
2021/08/03 04:15:09;;;;;;;2.30;1.40;;;16.80;99.90;;;;;;5032802;28;20420;-79
2021/08/03 04:17:35;;;;;;;1.97;1.73;;;16.90;99.90;;;;;;5017844;28;20229;-80
2021/08/03 04:20:02;;;;;;;4.33;1.90;;;16.80;99.90;;;;;;5034741;28;20524;-80
2021/08/03 04:22:28;;;;;;;2.50;1.60;;;16.90;99.90;;;;;;5018333;28;20412;-78
2021/08/03 04:24:54;;;;;;;2.87;1.60;;;17.10;99.90;;;;;;5018127;28;20420;-79
2021/08/03 04:27:19;;;;;;;1.80;1.40;;;17.10;99.90;;;;;;5016324;28;20820;-78
2021/08/03 04:29:45;;;;;;;3.90;1.80;;;17.10;99.90;;;;;;5017502;28;20197;-79
2021/08/03 04:32:11;;;;;;;2.50;1.80;;;17.10;99.90;;;;;;5031757;28;20189;-79
2021/08/03 04:34:36;;;;;;;3.70;2.00;;;17.00;99.90;;;;;;5016309;28;20189;-79
2021/08/03 04:37:02;;;;;;;2.43;1.70;;;17.00;99.90;;;;;;5017966;28;20561;-79
2021/08/03 04:39:28;;;;;;;1.60;1.20;;;17.10;99.90;;;;;;5033363;28;20187;-78
2021/08/03 04:41:55;;;;;;;3.97;1.70;;;17.10;99.90;;;;;;5016829;28;20533;-79
2021/08/03 04:44:21;;;;;;;4.30;1.50;;;17.00;99.90;;;;;;5018100;28;20434;-79
2021/08/03 04:46:46;;;;;;;1.93;1.50;;;17.10;99.90;;;;;;5017218;28;20417;-78
2021/08/03 04:49:12;;;;;;;6.07;1.63;;;17.10;99.90;;;;;;5022713;28;20514;-79
2021/08/03 04:51:37;;;;;;;4.10;2.07;;;17.10;99.90;;;;;;5022020;28;20253;-79
2021/08/03 04:54:03;;;;;;;4.37;2.03;;;17.10;99.90;;;;;;5035849;28;20296;-80
2021/08/03 04:56:29;;;;;;;4.07;2.00;;;17.10;99.90;;;;;;5035272;28;20193;-79
2021/08/03 04:58:55;;;;;;;2.13;1.67;;;17.10;99.90;;;;;;5019649;28;20404;-79
2021/08/03 05:01:20;;;;;;;3.63;2.30;;;17.00;99.90;;;;;;5017444;28;20436;-79
2021/08/03 05:03:46;;;;;;;3.50;2.43;;;17.10;99.90;;;;;;5017848;28;20610;-81
2021/08/03 05:06:12;;;;;;;5.80;2.80;;;17.10;99.90;;;;;;5034508;28;20170;-79
2021/08/03 05:08:37;;;;;;;4.20;2.10;;;17.20;99.90;;;;;;5021121;28;20278;-80
2021/08/03 05:11:03;;;;;;;2.60;1.93;;;17.30;99.90;;;;;;5020886;28;20171;-80
2021/08/03 05:13:28;;;;;;;3.03;2.00;;;17.40;99.90;;;;;;5021237;28;20226;-81
2021/08/03 05:15:54;;;;;;;5.50;1.90;;;17.30;99.90;;;;;;5023826;28;20316;-81
2021/08/03 05:18:19;;;;;;;2.13;1.73;;;17.40;99.90;;;;;;5036533;28;20193;-80
2021/08/03 05:20:45;;;;;;;1.60;1.50;;;17.40;99.90;;;;;;5020108;28;20209;-81
2021/08/03 05:23:10;;;;;;;2.50;2.20;;;17.40;99.90;;;;;;5019541;28;20200;-81
2021/08/03 05:25:36;;;;;;;2.07;1.67;;;17.50;99.90;;;;;;5016994;28;20624;-81
2021/08/03 05:28:02;;;;;;;1.90;1.37;;;17.60;99.90;;;;;;5001396;28;20209;-81
2021/08/03 05:30:27;;;;;;;1.70;1.47;;;17.60;99.90;;;;;;5018335;28;20179;-81
2021/08/03 05:32:53;;;;;;;1.77;1.27;;;17.70;99.90;;;;;;5032374;28;20202;-81
2021/08/03 05:35:18;;;;;;;2.27;1.60;;;17.80;99.90;;;;;;5029552;28;20188;-81
2021/08/03 05:37:44;;;;;;;1.93;1.53;;;17.90;99.90;;;;;;5046390;28;20207;-81
2021/08/03 05:40:16;;;;;;;1.90;1.40;;;17.90;99.90;;;;;;5055212;28;20584;-81
2021/08/03 05:42:42;;;;;;;4.30;1.70;;;17.90;99.90;;;;;;5036349;28;20197;-79
2021/08/03 05:45:08;;;;;;;1.60;1.20;;;17.90;99.90;;;;;;5025069;28;20456;-78
2021/08/03 05:47:34;;;;;;;1.70;1.20;;;18.00;99.90;;;;;;5038473;28;20419;-81
2021/08/03 05:49:59;;;;;;;1.97;1.47;;;17.80;99.90;;;;;;5024090;28;20419;-80
2021/08/03 05:52:25;;;;;;;1.63;1.27;;;17.80;99.90;;;;;;5040499;28;20429;-78
2021/08/03 05:54:53;;;;;;;2.63;1.33;;;17.70;99.90;;;;;;5045836;28;20188;-80
2021/08/03 05:57:19;;;;;;;2.43;1.40;;;17.70;99.90;;;;;;5033517;28;20207;-80
2021/08/03 05:59:44;;;;;;;2.60;1.40;;;17.80;99.90;;;;;;5041226;28;20483;-81
2021/08/03 06:02:10;;;;;;;3.30;1.50;;;17.70;99.90;;;;;;5037286;28;20176;-81
2021/08/03 06:04:35;;;;;;;2.00;1.53;;;17.80;99.90;;;;;;5038497;28;20192;-79
2021/08/03 06:07:03;;;;;;;1.60;1.30;;;17.80;99.90;;;;;;5039123;28;20188;-79
2021/08/03 06:09:30;;;;;;;3.30;1.83;;;17.80;99.90;;;;;;5050071;28;20188;-80
2021/08/03 06:11:58;;;;;;;2.47;1.40;;;17.90;99.90;;;;;;5058363;28;20447;-80
2021/08/03 06:14:31;;;;;;;2.43;1.60;;;17.90;99.90;;;;;;5003084;28;20479;-80
2021/08/03 06:17:01;;;;;;;1.93;1.60;;;18.00;99.90;;;;;;5018862;28;20509;-80
2021/08/03 06:19:27;;;;;;;2.23;1.60;;;18.00;99.90;;;;;;5038872;28;20462;-80
2021/08/03 06:21:57;;;;;;;2.50;1.97;;;18.00;99.90;;;;;;5056851;28;20417;-80
2021/08/03 06:24:23;;;;;;;1.93;1.53;;;18.10;99.90;;;;;;5048251;28;20483;-80
2021/08/03 06:26:48;;;;;;;2.17;1.37;;;18.10;99.90;;;;;;5044720;28;20526;-79
2021/08/03 06:29:14;;;;;;;2.30;1.47;;;18.00;99.90;;;;;;5045582;28;20470;-78
2021/08/03 06:31:41;;;;;;;1.80;1.23;;;18.00;99.90;;;;;;5036643;28;20173;-79
2021/08/03 06:34:06;;;;;;;2.43;1.57;;;18.00;99.90;;;;;;5036365;28;20457;-78
2021/08/03 06:36:32;;;;;;;2.33;1.43;;;18.00;99.90;;;;;;5039080;28;20431;-79
2021/08/03 06:38:57;;;;;;;4.40;1.30;;;18.00;99.90;;;;;;5037842;28;20600;-78
2021/08/03 06:41:28;;;;;;;2.07;1.60;;;17.90;99.90;;;;;;5048898;28;20257;-79
2021/08/03 06:43:58;;;;;;;2.70;1.50;;;17.80;99.90;;;;;;5057223;28;20269;-78
2021/08/03 06:46:25;;;;;;;1.80;1.40;;;17.80;99.90;;;;;;5044851;28;20535;-78
2021/08/03 06:49:01;;;;;;;6.73;1.57;;;17.90;99.90;;;;;;5036499;28;20806;-78
2021/08/03 06:51:31;;;;;;;16.53;1.87;;;18.00;99.90;;;;;;5046202;28;20462;-78
2021/08/03 06:54:02;;;;;;;1.70;1.40;;;17.90;99.90;;;;;;5058923;28;20448;-79
2021/08/03 06:56:31;;;;;;;1.60;1.30;;;17.90;99.90;;;;;;5047714;28;20460;-80
2021/08/03 06:59:03;;;;;;;1.70;1.20;;;18.00;99.90;;;;;;5040361;28;20431;-78
2021/08/03 07:01:46;;;;;;;1.90;1.50;;;18.00;99.90;;;;;;5047165;28;20408;-79
2021/08/03 07:04:15;;;;;;;7.13;1.33;;;18.10;99.90;;;;;;5037459;28;20423;-78
2021/08/03 07:06:46;;;;;;;3.07;1.90;;;18.20;99.90;;;;;;5036906;28;20423;-79
2021/08/03 07:09:13;;;;;;;2.67;1.60;;;18.10;99.90;;;;;;5047421;28;20415;-78
2021/08/03 07:11:39;;;;;;;3.53;1.97;;;18.30;99.90;;;;;;5036350;28;20494;-79
2021/08/03 07:14:05;;;;;;;3.80;1.77;;;18.50;99.90;;;;;;5035526;28;20506;-80
2021/08/03 07:16:31;;;;;;;1.67;1.10;;;18.80;99.90;;;;;;5032121;28;20429;-78
2021/08/03 07:18:58;;;;;;;2.30;1.43;;;19.10;99.90;;;;;;5038243;28;20958;-78
2021/08/03 07:21:25;;;;;;;2.57;1.70;;;19.60;99.90;;;;;;5054506;28;20906;-79
2021/08/03 07:23:55;;;;;;;1.60;1.50;;;20.10;99.90;;;;;;5031135;28;20444;-77
2021/08/03 07:26:20;;;;;;;1.50;1.37;;;20.10;99.90;;;;;;5029855;28;20488;-78
2021/08/03 07:28:46;;;;;;;2.33;1.23;;;19.90;99.90;;;;;;5003801;28;20467;-79
2021/08/03 07:31:12;;;;;;;2.60;1.47;;;19.80;99.90;;;;;;5026033;28;20196;-77
2021/08/03 07:33:39;;;;;;;3.20;1.43;;;19.70;99.90;;;;;;5035560;28;20211;-78
2021/08/03 07:36:04;;;;;;;2.27;1.60;;;19.90;99.90;;;;;;5036154;28;20894;-77
2021/08/03 07:38:30;;;;;;;2.90;1.27;;;19.90;99.90;;;;;;5035844;28;20515;-78
2021/08/03 07:40:56;;;;;;;1.90;1.10;;;20.00;99.90;;;;;;5024687;28;20235;-79
2021/08/03 07:43:21;;;;;;;1.63;1.10;;;19.80;99.90;;;;;;5027859;28;20568;-79
2021/08/03 07:45:47;;;;;;;1.23;0.97;;;19.70;99.90;;;;;;5044637;28;20270;-78
2021/08/03 07:48:13;;;;;;;3.10;1.50;;;19.60;99.90;;;;;;5036807;28;20186;-78
2021/08/03 07:50:42;;;;;;;2.13;1.70;;;19.70;99.90;;;;;;5035107;28;20179;-77
2021/08/03 07:53:08;;;;;;;2.70;1.40;;;19.90;99.90;;;;;;5037605;28;20972;-79
2021/08/03 07:55:33;;;;;;;2.47;1.33;;;19.90;99.90;;;;;;5055990;28;20424;-79
2021/08/03 07:57:59;;;;;;;1.50;1.13;;;19.80;99.90;;;;;;5035597;28;20206;-77
2021/08/03 08:00:25;;;;;;;2.00;1.43;;;19.90;99.90;;;;;;5048214;28;20433;-77
2021/08/03 08:02:50;;;;;;;1.67;1.43;;;20.10;99.90;;;;;;5043603;28;20294;-78
2021/08/03 08:05:16;;;;;;;7.03;1.60;;;20.20;99.90;;;;;;5036227;28;20188;-79
2021/08/03 08:07:42;;;;;;;2.43;1.40;;;20.40;99.90;;;;;;5036481;28;20206;-79
2021/08/03 08:10:08;;;;;;;4.23;1.53;;;20.30;99.90;;;;;;5054751;28;20209;-79
2021/08/03 08:12:33;;;;;;;2.80;1.10;;;20.50;99.90;;;;;;5045975;28;20212;-78
2021/08/03 08:14:59;;;;;;;2.93;1.80;;;20.20;99.90;;;;;;5054419;28;20445;-79
2021/08/03 08:17:24;;;;;;;1.23;1.07;;;20.30;99.90;;;;;;5048182;28;20212;-80
2021/08/03 08:19:50;;;;;;;2.60;1.90;;;20.30;99.90;;;;;;5030397;28;20204;-78
2021/08/03 08:22:15;;;;;;;3.17;1.60;;;20.00;99.90;;;;;;5050334;28;20192;-80
2021/08/03 08:24:41;;;;;;;2.87;1.90;;;20.40;99.90;;;;;;5036215;28;20245;-79
2021/08/03 08:27:07;;;;;;;3.50;1.37;;;20.60;99.90;;;;;;5040606;28;20204;-81
2021/08/03 08:29:32;;;;;;;2.57;1.30;;;20.70;99.90;;;;;;5056256;28;20211;-78
2021/08/03 08:31:58;;;;;;;1.57;1.00;;;20.60;99.90;;;;;;5057234;28;20282;-78
2021/08/03 08:34:24;;;;;;;3.03;1.57;;;20.40;99.90;;;;;;5055607;28;20207;-80
2021/08/03 08:36:51;;;;;;;3.77;1.57;;;20.50;99.90;;;;;;5042823;28;20431;-79
2021/08/03 08:39:16;;;;;;;2.27;1.30;;;20.90;99.90;;;;;;5036944;28;20566;-79
2021/08/03 08:41:44;;;;;;;1.20;1.03;;;21.00;99.90;;;;;;5049236;28;20430;-78
2021/08/03 08:44:10;;;;;;;2.63;1.23;;;21.00;99.90;;;;;;5055842;28;20196;-79
2021/08/03 08:46:37;;;;;;;6.00;1.20;;;21.20;99.90;;;;;;5045964;28;20514;-78
2021/08/03 08:49:05;;;;;;;1.50;1.10;;;21.20;99.90;;;;;;5035914;28;20502;-78
2021/08/03 08:51:31;;;;;;;2.50;1.13;;;21.20;99.90;;;;;;5045118;28;20431;-79
2021/08/03 08:53:58;;;;;;;5.67;1.70;;;21.30;99.90;;;;;;5047027;28;20446;-80
2021/08/03 08:56:26;;;;;;;1.43;0.90;;;21.10;99.90;;;;;;5044885;28;20462;-81
2021/08/03 08:58:51;;;;;;;3.03;1.30;;;21.10;99.90;;;;;;5053031;28;20500;-78
2021/08/03 09:01:17;;;;;;;2.07;1.17;;;21.30;99.90;;;;;;5056139;28;20505;-80
2021/08/03 09:03:43;;;;;;;1.50;1.17;;;21.40;99.90;;;;;;5039275;28;20197;-79
2021/08/03 09:06:10;;;;;;;1.60;1.33;;;21.30;99.90;;;;;;5035452;28;20177;-81
2021/08/03 09:08:38;;;;;;;3.77;1.07;;;21.30;99.90;;;;;;5041232;28;20430;-79
2021/08/03 09:11:09;;;;;;;1.87;1.30;;;21.50;99.90;;;;;;5054512;28;20423;-79
2021/08/03 09:13:49;;;;;;;2.70;1.23;;;21.60;99.90;;;;;;5038463;28;20459;-80
2021/08/03 09:16:15;;;;;;;2.30;1.30;;;21.90;99.90;;;;;;5040617;28;20423;-79
2021/08/03 09:18:45;;;;;;;5.30;1.47;;;22.00;99.90;;;;;;5044337;28;20459;-80
2021/08/03 09:21:19;;;;;;;1.47;0.97;;;21.90;99.90;;;;;;5040879;28;20507;-79
2021/08/03 09:23:51;;;;;;;1.50;0.90;;;21.40;99.90;;;;;;5040471;28;21021;-80
2021/08/03 09:26:19;;;;;;;1.33;1.10;;;21.40;99.90;;;;;;5040455;28;20522;-79
2021/08/03 09:29:04;;;;;;;1.53;1.20;;;21.40;99.90;;;;;;5038148;28;20431;-78
2021/08/03 09:31:31;;;;;;;1.30;1.17;;;21.50;99.90;;;;;;5038841;28;20927;-79
2021/08/03 09:33:57;;;;;;;1.47;1.23;;;21.10;99.90;;;;;;5040495;28;20443;-79
2021/08/03 09:36:50;;;;;;;1.27;0.93;;;21.00;99.90;;;;;;5029785;28;20505;-79
2021/08/03 09:39:37;;;;;;;1.70;1.20;;;21.20;99.90;;;;;;5020383;28;20389;-79
2021/08/03 09:42:11;;;;;;;1.90;1.13;;;21.30;99.90;;;;;;5048551;28;20775;-79
2021/08/03 09:44:44;;;;;;;1.20;0.93;;;21.20;99.90;;;;;;5057978;28;20794;-78
2021/08/03 09:47:10;;;;;;;1.40;1.03;;;20.90;99.90;;;;;;5050457;28;20447;-78
2021/08/03 09:49:37;;;;;;;2.60;1.37;;;20.60;99.90;;;;;;5032723;28;20416;-81
2021/08/03 09:52:05;;;;;;;2.40;1.10;;;20.60;99.90;;;;;;5038350;28;20177;-79
2021/08/03 09:54:31;;;;;;;1.23;1.10;;;20.70;99.90;;;;;;5039249;28;20840;-78
2021/08/03 09:56:59;;;;;;;1.10;0.70;;;20.70;99.90;;;;;;5026268;28;20456;-79
2021/08/03 09:59:36;;;;;;;1.60;1.07;;;20.60;99.90;;;;;;5034366;28;20185;-79
2021/08/03 10:02:04;;;;;;;2.97;0.83;;;20.80;99.90;;;;;;5040049;28;20424;-78
2021/08/03 10:04:32;;;;;;;3.27;1.30;;;21.00;99.90;;;;;;5040218;28;20450;-80
2021/08/03 10:06:58;;;;;;;3.07;0.90;;;21.00;99.90;;;;;;5059245;28;20422;-78
2021/08/03 10:09:25;;;;;;;1.90;1.20;;;21.10;99.90;;;;;;5059432;28;20542;-81
2021/08/03 10:11:53;;;;;;;1.40;0.90;;;21.10;99.90;;;;;;5046030;28;20439;-79
2021/08/03 10:14:20;;;;;;;1.30;1.00;;;20.90;99.90;;;;;;5040719;28;20466;-78
2021/08/03 10:16:47;;;;;;;2.17;1.47;;;20.90;99.90;;;;;;5025967;28;20491;-80
2021/08/03 10:19:21;;;;;;;2.80;1.70;;;20.90;99.90;;;;;;5023809;28;20432;-79
2021/08/03 10:21:55;;;;;;;1.23;1.10;;;21.10;99.90;;;;;;5059105;28;20419;-80
2021/08/03 10:24:26;;;;;;;1.30;1.00;;;21.30;99.90;;;;;;5043861;28;20454;-79
2021/08/03 10:27:21;;;;;;;1.70;0.90;;;21.30;99.90;;;;;;5038546;28;20515;-80
2021/08/03 10:29:56;;;;;;;2.40;1.17;;;21.40;99.90;;;;;;5041663;28;20450;-79
2021/08/03 10:32:39;;;;;;;1.67;1.10;;;21.80;99.90;;;;;;5049960;28;20518;-78
2021/08/03 10:35:06;;;;;;;1.20;1.00;;;22.00;99.90;;;;;;5045964;28;20514;-79
2021/08/03 10:38:00;;;;;;;1.80;1.10;;;22.10;99.90;;;;;;5045966;28;20985;-79
2021/08/03 10:40:43;;;;;;;3.23;1.60;;;22.10;99.90;;;;;;5037813;28;20423;-79
2021/08/03 10:43:34;;;;;;;1.90;1.20;;;22.00;99.90;;;;;;5036173;28;20439;-78
2021/08/03 10:46:06;;;;;;;1.57;1.37;;;22.10;99.90;;;;;;5046516;28;20894;-79
2021/08/03 10:48:37;;;;;;;2.80;1.87;;;22.30;99.90;;;;;;5038847;28;20451;-80
2021/08/03 10:51:15;;;;;;;3.27;1.50;;;22.30;99.90;;;;;;5041092;28;20941;-78
2021/08/03 10:54:07;;;;;;;2.47;1.77;;;22.30;99.90;;;;;;5054166;28;20462;-79
2021/08/03 10:56:52;;;;;;;1.40;1.20;;;22.30;99.90;;;;;;5039834;28;20919;-78
2021/08/03 10:59:38;;;;;;;2.03;1.10;;;22.40;99.90;;;;;;5036727;28;20867;-78
2021/08/03 11:02:07;;;;;;;1.70;1.30;;;22.40;99.90;;;;;;5043158;28;20424;-78
2021/08/03 11:04:41;;;;;;;1.37;0.90;;;22.40;99.90;;;;;;5040482;28;20435;-77
2021/08/03 11:07:26;;;;;;;2.40;1.30;;;22.40;99.90;;;;;;5032728;28;20419;-76
2021/08/03 11:09:53;;;;;;;1.33;1.00;;;22.50;99.90;;;;;;5036556;28;20408;-77
2021/08/03 11:12:41;;;;;;;2.00;1.50;;;22.50;99.90;;;;;;5032989;28;20778;-77
2021/08/03 11:15:25;;;;;;;2.03;1.10;;;22.40;99.90;;;;;;5034987;28;20427;-77
2021/08/03 11:18:03;;;;;;;3.53;2.20;;;22.40;99.90;;;;;;5014054;28;20454;-78
2021/08/03 11:20:37;;;;;;;1.63;1.00;;;22.40;99.90;;;;;;5014379;28;20409;-77
2021/08/03 11:23:07;;;;;;;1.50;1.23;;;22.30;99.90;;;;;;5028183;28;21005;-77
2021/08/03 11:25:34;;;;;;;1.60;1.00;;;22.10;99.90;;;;;;5034040;28;20440;-78
2021/08/03 11:28:15;;;;;;;1.73;1.23;;;22.30;99.90;;;;;;5038710;28;20428;-77
2021/08/03 11:30:43;;;;;;;2.33;1.00;;;22.60;99.90;;;;;;5033392;28;20415;-77
2021/08/03 11:33:10;;;;;;;3.23;1.47;;;22.80;99.90;;;;;;5049244;28;20442;-77
2021/08/03 11:35:36;;;;;;;4.20;1.50;;;22.90;99.90;;;;;;5034928;28;20471;-76
2021/08/03 11:38:04;;;;;;;4.40;1.37;;;22.90;99.90;;;;;;5040043;28;20454;-77
2021/08/03 11:40:30;;;;;;;2.47;1.03;;;22.80;99.90;;;;;;5051860;28;20934;-77
2021/08/03 11:42:57;;;;;;;1.37;1.23;;;22.70;99.90;;;;;;5050602;28;20450;-76
2021/08/03 11:45:24;;;;;;;3.10;1.40;;;22.70;99.90;;;;;;5036752;28;20431;-78
2021/08/03 11:47:51;;;;;;;3.23;1.60;;;22.20;99.90;;;;;;5046134;28;20434;-77
2021/08/03 11:50:39;;;;;;;2.00;1.50;;;22.30;99.90;;;;;;5040858;28;20562;-76
2021/08/03 11:53:13;;;;;;;4.83;1.77;;;22.50;99.90;;;;;;5047954;28;20454;-76
2021/08/03 11:55:42;;;;;;;3.33;2.03;;;22.60;99.90;;;;;;5037086;28;20418;-76
2021/08/03 11:58:10;;;;;;;2.43;1.83;;;22.70;99.90;;;;;;5031911;28;20456;-77
2021/08/03 12:00:39;;;;;;;2.00;1.73;;;22.80;99.90;;;;;;5045768;28;20419;-77
2021/08/03 12:03:04;;;;;;;2.10;1.40;;;23.00;99.90;;;;;;5051624;28;20435;-77
2021/08/03 12:05:35;;;;;;;3.00;1.67;;;22.90;99.90;;;;;;5043560;28;20435;-77
2021/08/03 12:08:13;;;;;;;2.90;2.10;;;22.90;99.90;;;;;;5015105;28;20181;-76
2021/08/03 12:10:46;;;;;;;3.10;2.20;;;23.00;99.90;;;;;;5032692;28;20778;-77
2021/08/03 12:13:27;;;;;;;3.10;1.63;;;23.00;99.90;;;;;;5032473;28;20962;-78
2021/08/03 12:15:54;;;;;;;1.70;1.20;;;23.10;99.90;;;;;;5031835;28;20443;-76
2021/08/03 12:18:20;;;;;;;1.80;1.50;;;23.00;99.90;;;;;;5032348;28;20487;-75
2021/08/03 12:20:48;;;;;;;1.00;0.83;;;22.80;99.90;;;;;;5032850;28;20405;-76
2021/08/03 12:23:17;;;;;;;2.07;1.23;;;22.70;99.90;;;;;;5032355;28;20688;-77
2021/08/03 12:25:47;;;;;;;2.17;1.40;;;22.90;99.90;;;;;;5031676;28;20900;-77
2021/08/03 12:28:35;;;;;;;2.13;1.50;;;23.00;99.90;;;;;;5032998;28;20427;-78
2021/08/03 12:31:33;;;;;;;1.80;1.47;;;23.30;99.90;;;;;;5042622;28;20443;-77
2021/08/03 12:34:11;;;;;;;3.13;1.20;;;23.30;99.90;;;;;;5033450;28;20439;-78
2021/08/03 12:36:56;;;;;;;2.17;1.80;;;23.20;99.90;;;;;;5033145;28;20411;-79
2021/08/03 12:39:36;;;;;;;1.93;1.50;;;23.30;99.90;;;;;;5033350;28;20423;-78
2021/08/03 12:42:19;;;;;;;1.77;1.30;;;23.20;99.90;;;;;;5031335;28;20407;-78
2021/08/03 12:44:48;;;;;;;3.27;1.67;;;23.40;99.90;;;;;;5032567;28;20404;-78
2021/08/03 12:47:16;;;;;;;1.60;1.40;;;23.30;99.90;;;;;;5030351;28;20491;-79
2021/08/03 12:49:45;;;;;;;1.83;1.37;;;23.50;99.90;;;;;;5032579;28;20412;-79
2021/08/03 12:52:19;;;;;;;2.87;1.83;;;23.50;99.90;;;;;;5032502;28;20432;-77
2021/08/03 12:54:59;;;;;;;2.17;1.27;;;23.60;99.90;;;;;;5032963;28;20412;-77
2021/08/03 12:57:48;;;;;;;4.27;1.73;;;23.60;99.90;;;;;;5031174;28;20455;-78
2021/08/03 13:00:35;;;;;;;2.67;1.77;;;23.50;99.90;;;;;;5031459;28;20412;-79
2021/08/03 13:03:03;;;;;;;1.83;1.63;;;23.40;99.20;;;;;;5034469;28;20443;-78
2021/08/03 13:05:28;;;;;;;3.00;1.70;;;22.90;98.80;;;;;;5031157;28;20428;-79